マイアミ の空港の天気 - METARとTAF

マイアミ国際空港 ( KMIA / MIA ) - アメリカ フロリダ州マイアミ
飛行場実況気象(Metar)
観測時間10/15 12:53 EDT (10/15 16:53 UTC)
風向・風速東南東 5m/s
視程10km以上
天気現象
全天の4割程度の雲 雲底高度 980m
全天の4割程度の雲 雲底高度 7620m
気温30.6℃
湿度57%
気圧1016.8hPa
METARKMIA 151653Z 12009KT 090V150 10SM SCT032 SCT250 31/21 A3003 RMK AO2 SLP168 T03060211
過去の天気等 Google飛行場航空写真 Wunderground天気予報

過去48時間のMETAR

飛行場予報(TAF)
発表時間: 10/15 13:30 EDT (10/15 17:30 UTC)
予報対象時間: 15日14時 EDT ~ 16日20時 EDT
風向・風速東南東 5m/s
視程10km以上
少しの雲 雲底高度 910m
全天の8割程度の雲 雲底高度 7620m
15日23時 EDT から
風向・風速不定 3m/s
視程10km以上
少しの雲 雲底高度 1070m
少しの雲 雲底高度 6100m
16日10時 EDT から
風向・風速南 5m/s
視程10km以上
少しの雲 雲底高度 1070m
全天の8割程度の雲 雲底高度 1520m
KMIA 151730Z 1518/1624 11010KT P6SM FEW030 BKN250
FM160300 VRB05KT P6SM FEW035 FEW200
FM161400 19009KT P6SM FEW035 BKN050